Time,TemperatureF,DewpointF,PressureIn,WindDirection,WindDirectionDegrees,WindSpeedMPH,WindSpeedGustMPH,Humidity,HourlyPrecipIn,Conditions,Clouds,dailyrainin,SoftwareType,DateUTC
2013-02-19 00:15:00,12.8,-0.7,29.72,West,262,0.0,0.0,54,0.00,,,0.00,Wunderground v.1.12,2013-02-19 05:15:00,
2013-02-19 00:45:00,14.2,-1.5,29.73,West,263,0.0,0.0,49,0.00,,,0.00,Wunderground v.1.12,2013-02-19 05:45:00,
2013-02-19 01:15:00,15.1,0.2,29.73,West,262,0.0,0.0,51,0.00,,,0.00,Wunderground v.1.12,2013-02-19 06:15:00,
2013-02-19 01:45:00,15.6,1.5,29.72,West,267,0.0,0.0,53,0.00,,,0.00,Wunderground v.1.12,2013-02-19 06:45:00,
2013-02-19 02:15:00,16.5,1.9,29.70,West,267,0.0,0.0,52,0.00,,,0.00,Wunderground v.1.12,2013-02-19 07:15:00,
2013-02-19 02:45:00,17.0,1.5,29.68,East,88,1.0,1.0,50,0.00,,,0.00,Wunderground v.1.12,2013-02-19 07:45:00,
2013-02-19 03:15:00,17.9,0.6,29.66,NE,53,0.0,0.0,46,0.00,,,0.00,Wunderground v.1.12,2013-02-19 08:15:00,
2013-02-19 03:45:00,19.1,0.2,29.65,East,91,0.0,0.0,43,0.00,,,0.00,Wunderground v.1.12,2013-02-19 08:45:00,
2013-02-19 04:15:00,19.5,0.6,29.64,East,83,0.0,0.0,43,0.00,,,0.00,Wunderground v.1.12,2013-02-19 09:15:00,
2013-02-19 04:45:00,19.5,1.1,29.61,ENE,73,0.0,0.0,44,0.00,,,0.00,Wunderground v.1.12,2013-02-19 09:45:00,
2013-02-19 05:15:00,19.4,0.5,29.60,NE,46,0.0,0.0,43,0.00,,,0.00,Wunderground v.1.12,2013-02-19 10:15:00,
2013-02-19 05:45:00,19.2,0.3,29.58,NE,49,0.0,0.0,43,0.00,,,0.00,Wunderground v.1.12,2013-02-19 10:45:00,
2013-02-19 06:15:00,19.3,0.9,29.56,ENE,62,0.0,0.0,44,0.00,,,0.00,Wunderground v.1.12,2013-02-19 11:15:00,
2013-02-19 06:45:00,18.2,-0.1,29.53,ENE,68,1.0,1.0,44,0.00,,,0.00,Wunderground v.1.12,2013-02-19 11:45:00,
2013-02-19 07:15:00,18.1,-0.2,29.51,ENE,67,2.0,2.0,44,0.00,,,0.00,Wunderground v.1.12,2013-02-19 12:15:00,
2013-02-19 07:45:00,19.0,1.1,29.49,ENE,69,5.0,5.0,45,0.00,,,0.00,Wunderground v.1.12,2013-02-19 12:45:00,
2013-02-19 08:15:00,20.7,2.7,29.47,ENE,65,1.0,1.0,45,0.00,,,0.00,Wunderground v.1.12,2013-02-19 13:15:00,
2013-02-19 08:45:00,22.1,4.0,29.45,NE,50,0.0,0.0,45,0.00,,,0.00,Wunderground v.1.12,2013-02-19 13:45:00,
2013-02-19 09:15:00,23.5,4.8,29.42,East,86,0.0,0.0,44,0.00,,,0.00,Wunderground v.1.12,2013-02-19 14:15:00,
2013-02-19 09:45:00,24.5,5.7,29.42,NE,52,0.0,0.0,44,0.00,,,0.00,Wunderground v.1.12,2013-02-19 14:45:00,
2013-02-19 10:15:00,28.1,10.4,29.40,ENE,72,0.0,0.0,47,0.00,,,0.00,Wunderground v.1.12,2013-02-19 15:15:00,
2013-02-19 11:15:00,31.2,12.8,29.37,NE,51,0.0,0.0,46,0.00,,,0.00,Wunderground v.1.12,2013-02-19 16:15:00,
2013-02-19 11:45:00,31.1,14.1,29.36,NE,52,0.0,0.0,49,0.00,,,0.00,Wunderground v.1.12,2013-02-19 16:45:00,
2013-02-19 12:15:00,29.8,12.9,29.35,NE,51,0.0,0.0,49,0.00,,,0.00,Wunderground v.1.12,2013-02-19 17:15:00,
2013-02-19 12:45:00,32.5,15.9,29.33,NE,52,2.0,2.0,50,0.00,,,0.00,Wunderground v.1.12,2013-02-19 17:45:00,
2013-02-19 13:15:00,33.3,19.3,29.31,NE,52,0.0,0.0,56,0.00,,,0.00,Wunderground v.1.12,2013-02-19 18:15:00,
2013-02-19 13:45:00,32.0,21.2,29.30,NE,52,0.0,0.0,64,0.00,,,0.00,Wunderground v.1.12,2013-02-19 18:45:00,
2013-02-19 14:15:00,31.0,21.7,29.29,NE,52,0.0,0.0,68,0.00,,,0.00,Wunderground v.1.12,2013-02-19 19:15:00,
2013-02-19 14:45:00,30.5,21.9,29.28,NE,55,0.0,0.0,70,0.00,,,0.00,Wunderground v.1.12,2013-02-19 19:45:00,
2013-02-19 15:15:00,30.8,22.8,29.36,N/A,-737280,0.0,0.0,72,0.00,,,0.00,Wunderground v.1.12,2013-02-19 20:15:00,
2013-02-19 15:45:00,30.9,23.3,29.25,NE,55,0.0,0.0,73,0.00,,,0.00,Wunderground v.1.12,2013-02-19 20:45:00,
2013-02-19 16:15:00,30.3,23.6,29.26,NE,55,0.0,0.0,76,0.00,,,0.00,Wunderground v.1.12,2013-02-19 21:15:00,
2013-02-19 16:45:00,30.7,24.3,29.24,NE,55,0.0,0.0,77,0.00,,,0.00,Wunderground v.1.12,2013-02-19 21:45:00,
2013-02-19 18:15:00,32.4,26.9,29.36,South,180,1.0,7.0,80,0.00,,,0.00,Wunderground v.1.12,2013-02-19 23:15:00,
2013-02-19 18:45:00,32.4,27.2,29.26,SSW,203,2.0,2.0,81,0.00,,,0.00,Wunderground v.1.12,2013-02-19 23:45:00,
2013-02-19 19:15:00,32.9,27.7,29.27,SW,236,4.0,4.0,81,0.00,,,0.00,Wunderground v.1.12,2013-02-20 00:15:00,
2013-02-19 19:45:00,32.7,26.6,29.28,WSW,253,12.0,12.0,78,0.00,,,0.00,Wunderground v.1.12,2013-02-20 00:45:00,
2013-02-19 20:15:00,32.5,23.8,29.39,WSW,248,13.0,26.0,70,0.01,,,0.02,Wunderground v.1.12,2013-02-20 01:15:00,
2013-02-19 20:45:00,32.1,23.1,29.28,West,263,12.0,12.0,69,0.00,,,0.00,Wunderground v.1.12,2013-02-20 01:45:00,
2013-02-19 21:15:00,31.1,21.4,29.30,West,261,20.0,20.0,67,0.00,,,0.00,Wunderground v.1.12,2013-02-20 02:15:00,
2013-02-19 21:45:00,30.4,20.0,29.30,West,259,9.0,9.0,65,0.00,,,0.00,Wunderground v.1.12,2013-02-20 02:45:00,
2013-02-19 22:15:00,29.8,19.8,29.29,WSW,256,8.0,8.0,66,0.00,,,0.00,Wunderground v.1.12,2013-02-20 03:15:00,
2013-02-19 22:45:00,29.4,19.4,29.29,WSW,258,5.0,5.0,66,0.00,,,0.00,Wunderground v.1.12,2013-02-20 03:45:00,
2013-02-19 23:15:00,29.1,19.2,29.29,WSW,257,10.0,10.0,66,0.00,,,0.00,Wunderground v.1.12,2013-02-20 04:15:00,
2013-02-19 23:45:00,29.0,19.4,29.28,West,263,13.0,13.0,67,0.00,,,0.00,Wunderground v.1.12,2013-02-20 04:45:00,